createdAt,value
2019-04-07T00:01:10.221Z,2.67
2019-04-07T00:02:42.986Z,2.67
2019-04-07T00:04:15.831Z,2.87
2019-04-07T00:05:48.305Z,2.40
2019-04-07T00:07:20.651Z,2.90
2019-04-07T00:08:53.575Z,2.90
2019-04-07T00:10:26.169Z,2.80
2019-04-07T00:11:59.087Z,2.60
2019-04-07T00:13:31.690Z,2.90
2019-04-07T00:15:04.806Z,2.53
2019-04-07T00:16:37.359Z,2.87
2019-04-07T00:18:10.361Z,2.60
2019-04-07T00:19:42.892Z,2.50
2019-04-07T00:21:15.281Z,2.90
2019-04-07T00:22:47.734Z,2.40
2019-04-07T00:24:20.065Z,2.87
2019-04-07T00:25:52.419Z,2.80
2019-04-07T00:27:24.850Z,2.50
2019-04-07T00:28:57.781Z,2.50
2019-04-07T00:30:30.335Z,2.57
2019-04-07T00:32:02.866Z,2.60
2019-04-07T00:33:35.377Z,2.63
2019-04-07T00:35:07.725Z,2.37
2019-04-07T00:36:40.114Z,2.37
2019-04-07T00:38:12.726Z,2.60
2019-04-07T00:39:45.189Z,2.63
2019-04-07T00:41:17.661Z,2.43
2019-04-07T00:42:50.216Z,2.77
2019-04-07T00:44:22.612Z,2.50
2019-04-07T00:45:55.107Z,2.40
2019-04-07T00:47:27.510Z,2.70
2019-04-07T00:49:00.304Z,2.50
2019-04-07T00:50:33.303Z,2.60
2019-04-07T00:52:06.149Z,2.50
2019-04-07T00:53:39.352Z,2.50
2019-04-07T00:55:11.900Z,2.33
2019-04-07T00:56:44.325Z,2.60
2019-04-07T00:58:16.682Z,2.40
2019-04-07T00:59:49.098Z,2.60
2019-04-07T01:01:21.712Z,2.83
2019-04-07T01:02:54.258Z,2.53
2019-04-07T01:04:26.687Z,2.60
2019-04-07T01:05:59.146Z,2.73
2019-04-07T01:07:31.470Z,2.80
2019-04-07T01:09:04.480Z,2.43
2019-04-07T01:10:36.991Z,2.10
2019-04-07T01:12:09.431Z,2.53
2019-04-07T01:13:41.789Z,2.43
2019-04-07T01:15:14.227Z,2.23
2019-04-07T01:16:47.133Z,2.90
2019-04-07T01:18:19.655Z,2.40
2019-04-07T01:19:52.053Z,2.80
2019-04-07T01:21:24.954Z,2.90
2019-04-07T01:22:57.487Z,2.80
2019-04-07T01:24:29.954Z,2.50
2019-04-07T01:26:02.294Z,2.80
2019-04-07T01:27:34.786Z,3.00
2019-04-07T01:29:07.282Z,2.50
2019-04-07T01:30:40.381Z,2.70
2019-04-07T01:32:12.858Z,3.03
2019-04-07T01:33:45.354Z,2.90
2019-04-07T01:35:17.752Z,2.97
2019-04-07T01:36:50.152Z,2.80
2019-04-07T01:38:22.609Z,2.70
2019-04-07T01:39:54.954Z,2.87
2019-04-07T01:41:27.527Z,2.50
2019-04-07T01:43:00.082Z,2.60
2019-04-07T01:44:33.386Z,2.50
2019-04-07T01:46:06.385Z,2.50
2019-04-07T01:47:38.866Z,2.50
2019-04-07T01:49:11.738Z,2.90
2019-04-07T01:50:45.081Z,2.60
2019-04-07T01:52:18.208Z,2.93
2019-04-07T01:53:51.003Z,3.20
2019-04-07T01:55:23.629Z,2.97
2019-04-07T01:56:56.146Z,2.57
2019-04-07T01:58:28.570Z,2.60
2019-04-07T02:00:01.050Z,3.20
2019-04-07T02:01:33.881Z,2.70
2019-04-07T02:03:06.408Z,2.60
2019-04-07T02:04:38.987Z,3.43
2019-04-07T02:06:11.759Z,3.23
2019-04-07T02:07:44.579Z,3.20
2019-04-07T02:09:17.124Z,3.10
2019-04-07T02:10:49.625Z,2.80
2019-04-07T02:12:22.382Z,2.80
2019-04-07T02:13:55.783Z,2.90
2019-04-07T02:15:28.366Z,3.00
2019-04-07T02:17:00.905Z,3.03
2019-04-07T02:18:33.427Z,3.23
2019-04-07T02:20:05.774Z,3.27
2019-04-07T02:21:38.122Z,3.03
2019-04-07T02:23:10.534Z,3.30
2019-04-07T02:24:43.821Z,3.40
2019-04-07T02:26:16.356Z,3.47
2019-04-07T02:27:49.492Z,3.03
2019-04-07T02:29:22.147Z,3.10
2019-04-07T02:30:54.680Z,3.20
2019-04-07T02:32:27.809Z,3.20
2019-04-07T02:34:00.452Z,3.50
2019-04-07T02:35:32.891Z,2.80
2019-04-07T02:37:06.617Z,2.97
2019-04-07T02:38:39.174Z,3.73
2019-04-07T02:40:11.851Z,3.10
2019-04-07T02:41:44.480Z,3.40
2019-04-07T02:43:17.862Z,3.37
2019-04-07T02:44:50.849Z,3.13
2019-04-07T02:46:24.060Z,3.35
2019-04-07T02:47:57.570Z,3.13
2019-04-07T02:49:30.389Z,3.20
2019-04-07T02:51:03.122Z,3.00
2019-04-07T02:52:35.768Z,3.17
2019-04-07T02:54:09.352Z,3.60
2019-04-07T02:55:42.242Z,3.30
2019-04-07T02:57:15.182Z,3.53
2019-04-07T02:58:47.745Z,3.13
2019-04-07T03:00:20.541Z,3.73
2019-04-07T03:01:52.990Z,3.40
2019-04-07T03:03:25.469Z,3.63
2019-04-07T03:04:58.578Z,3.13
2019-04-07T03:06:39.314Z,3.43
2019-04-07T03:08:05.736Z,3.30
2019-04-07T03:09:38.447Z,3.17
2019-04-07T03:11:10.902Z,3.03
2019-04-07T03:12:43.458Z,3.30
2019-04-07T03:14:16.010Z,3.60
2019-04-07T03:15:48.491Z,3.53
2019-04-07T03:17:21.027Z,3.50
2019-04-07T03:18:53.383Z,3.53
2019-04-07T03:20:25.815Z,4.23
2019-04-07T03:21:58.232Z,3.73
2019-04-07T03:23:31.615Z,4.03
2019-04-07T03:25:04.225Z,4.20
2019-04-07T03:26:38.332Z,4.33
2019-04-07T03:28:10.776Z,3.77
2019-04-07T03:29:51.853Z,3.97
2019-04-07T03:31:24.395Z,3.90
2019-04-07T03:32:58.044Z,3.93
2019-04-07T03:34:33.398Z,3.63
2019-04-07T03:36:06.844Z,3.83
2019-04-07T03:37:44.314Z,3.57
2019-04-07T03:39:13.070Z,4.00
2019-04-07T03:40:46.304Z,3.80
2019-04-07T03:42:18.869Z,3.47
2019-04-07T03:43:51.343Z,3.97
2019-04-07T03:45:23.694Z,3.87
2019-04-07T03:46:57.054Z,3.80
2019-04-07T03:48:30.399Z,3.80
2019-04-07T03:50:03.384Z,3.77
2019-04-07T03:51:36.411Z,3.63
2019-04-07T03:53:10.058Z,3.57
2019-04-07T03:54:43.338Z,3.70
2019-04-07T03:56:15.965Z,3.97
2019-04-07T03:57:49.275Z,3.83
2019-04-07T03:59:21.838Z,4.03
2019-04-07T04:00:55.105Z,3.80
2019-04-07T04:02:27.937Z,3.90
2019-04-07T04:04:00.691Z,4.27
2019-04-07T04:05:34.117Z,3.90
2019-04-07T04:07:20.702Z,3.90
2019-04-07T04:08:41.698Z,4.17
2019-04-07T04:10:14.326Z,4.27
2019-04-07T04:11:47.016Z,3.90
2019-04-07T04:13:20.099Z,3.77
2019-04-07T04:14:52.763Z,3.43
2019-04-07T04:16:25.776Z,3.90
2019-04-07T04:17:58.288Z,3.90
2019-04-07T04:19:30.776Z,3.57
2019-04-07T04:21:03.568Z,3.60
2019-04-07T04:22:36.118Z,4.43
2019-04-07T04:24:08.587Z,4.27
2019-04-07T04:25:40.989Z,3.97
2019-04-07T04:27:13.414Z,3.97
2019-04-07T04:28:46.221Z,4.43
2019-04-07T04:30:18.955Z,4.40
2019-04-07T04:31:51.357Z,4.67
2019-04-07T04:33:23.767Z,3.80
2019-04-07T04:34:56.248Z,4.23
2019-04-07T04:36:29.421Z,4.30
2019-04-07T04:38:02.112Z,4.23
2019-04-07T04:39:35.344Z,4.47
2019-04-07T04:41:07.921Z,4.10
2019-04-07T04:42:40.834Z,3.93
2019-04-07T04:44:14.301Z,4.00
2019-04-07T04:45:46.791Z,4.43
2019-04-07T04:47:19.191Z,4.07
2019-04-07T04:48:52.427Z,4.07
2019-04-07T04:50:25.839Z,4.43
2019-04-07T04:51:58.703Z,4.43
2019-04-07T04:53:32.019Z,4.63
2019-04-07T04:55:04.600Z,4.50
2019-04-07T04:56:37.349Z,4.83
2019-04-07T04:58:11.206Z,4.47
2019-04-07T04:59:44.258Z,4.30
2019-04-07T05:01:17.477Z,4.57
2019-04-07T05:02:49.958Z,4.33
2019-04-07T05:04:22.953Z,4.23
2019-04-07T05:05:56.303Z,4.80
2019-04-07T05:07:28.944Z,4.50
2019-04-07T05:09:02.133Z,4.53
2019-04-07T05:10:34.840Z,4.50
2019-04-07T05:12:07.442Z,4.87
2019-04-07T05:13:39.861Z,4.30
2019-04-07T05:15:13.043Z,4.23
2019-04-07T05:16:45.699Z,4.07
2019-04-07T05:18:18.043Z,4.27
2019-04-07T05:19:50.971Z,4.33
2019-04-07T05:21:24.004Z,4.03
2019-04-07T05:22:56.445Z,4.43
2019-04-07T05:24:28.867Z,4.13
2019-04-07T05:26:01.266Z,3.87
2019-04-07T05:27:33.747Z,4.50
2019-04-07T05:29:06.172Z,3.50
2019-04-07T05:30:39.155Z,4.33
2019-04-07T05:32:12.227Z,3.90
2019-04-07T05:33:45.133Z,4.43
2019-04-07T05:35:17.625Z,4.40
2019-04-07T05:36:50.007Z,4.00
2019-04-07T05:38:22.500Z,3.70
2019-04-07T05:39:55.045Z,4.43
2019-04-07T05:41:27.410Z,4.10
2019-04-07T05:42:59.956Z,4.60
2019-04-07T05:44:32.306Z,4.20
2019-04-07T05:46:06.986Z,4.63
2019-04-07T05:47:40.859Z,3.80
2019-04-07T05:49:15.792Z,4.20
2019-04-07T05:50:47.286Z,4.10
2019-04-07T05:52:19.786Z,4.30
2019-04-07T05:53:52.655Z,3.77
2019-04-07T05:55:25.074Z,3.70
2019-04-07T05:57:01.212Z,4.40
2019-04-07T05:58:32.235Z,4.10
2019-04-07T06:00:04.721Z,3.90
2019-04-07T06:01:37.310Z,3.97
2019-04-07T06:03:09.720Z,3.97
2019-04-07T06:04:46.857Z,4.73
2019-04-07T06:06:20.198Z,4.37
2019-04-07T06:07:52.766Z,4.03
2019-04-07T06:09:25.249Z,4.63
2019-04-07T06:11:01.289Z,4.63
2019-04-07T06:12:32.619Z,4.40
2019-04-07T06:14:05.746Z,4.80
2019-04-07T06:15:38.314Z,4.77
2019-04-07T06:17:10.849Z,4.80
2019-04-07T06:18:44.420Z,5.17
2019-04-07T06:20:24.749Z,5.30
2019-04-07T06:21:57.969Z,4.83
2019-04-07T06:23:30.981Z,5.23
2019-04-07T06:25:04.613Z,5.23
2019-04-07T06:26:41.511Z,5.10
2019-04-07T06:28:13.929Z,4.87
2019-04-07T06:29:45.711Z,4.63
2019-04-07T06:31:18.389Z,5.10
2019-04-07T06:32:51.570Z,5.00
2019-04-07T06:34:26.940Z,4.67
2019-04-07T06:35:59.607Z,5.37
2019-04-07T06:37:33.331Z,5.17
2019-04-07T06:39:05.763Z,5.40
2019-04-07T06:40:38.096Z,5.30
2019-04-07T06:42:10.472Z,4.93
2019-04-07T06:43:43.014Z,5.83
2019-04-07T06:45:16.207Z,5.80
2019-04-07T06:46:49.177Z,5.57
2019-04-07T06:48:22.253Z,5.17
2019-04-07T06:49:54.831Z,5.30
2019-04-07T06:51:30.936Z,5.27
2019-04-07T06:53:02.226Z,5.93
2019-04-07T06:54:35.237Z,5.87
2019-04-07T06:56:08.876Z,5.87
2019-04-07T06:57:41.669Z,5.83
2019-04-07T06:59:15.546Z,5.70
2019-04-07T07:00:49.161Z,6.83
2019-04-07T07:02:22.543Z,7.53
2019-04-07T07:03:55.171Z,5.73
2019-04-07T07:05:27.931Z,6.33
2019-04-07T07:07:00.730Z,6.60
2019-04-07T07:08:42.641Z,5.90
2019-04-07T07:10:07.131Z,6.67
2019-04-07T07:11:42.811Z,5.77
2019-04-07T07:13:26.513Z,5.53
2019-04-07T07:14:47.968Z,5.87
2019-04-07T07:16:20.691Z,5.73
2019-04-07T07:17:56.149Z,6.33
2019-04-07T07:19:28.567Z,6.40
2019-04-07T07:21:03.157Z,6.00
2019-04-07T07:22:35.732Z,5.70
2019-04-07T07:24:08.159Z,6.50
2019-04-07T07:25:40.956Z,6.50
2019-04-07T07:27:14.191Z,6.00
2019-04-07T07:28:46.944Z,6.00
2019-04-07T07:30:20.352Z,6.20
2019-04-07T07:31:59.948Z,6.00
2019-04-07T07:33:28.113Z,5.70
2019-04-07T07:35:00.613Z,5.90
2019-04-07T07:36:33.778Z,5.77
2019-04-07T07:38:06.174Z,5.97
2019-04-07T07:39:41.850Z,6.17
2019-04-07T07:41:12.739Z,6.07
2019-04-07T07:42:45.831Z,6.10
2019-04-07T07:44:19.983Z,6.20
2019-04-07T07:45:52.666Z,6.20
2019-04-07T07:47:25.370Z,6.60
2019-04-07T07:49:01.080Z,6.87
2019-04-07T07:50:31.966Z,7.07
2019-04-07T07:52:04.931Z,6.53
2019-04-07T07:53:38.323Z,6.90
2019-04-07T07:55:11.009Z,6.33
2019-04-07T07:56:48.561Z,6.07
2019-04-07T07:58:18.193Z,6.47
2019-04-07T07:59:50.975Z,6.90
2019-04-07T08:01:23.509Z,6.53
2019-04-07T08:02:56.139Z,6.73
2019-04-07T08:04:29.143Z,6.70
2019-04-07T08:06:04.819Z,7.10
2019-04-07T08:07:35.910Z,8.37
2019-04-07T08:09:13.828Z,7.87
2019-04-07T08:10:42.700Z,6.30
2019-04-07T08:12:16.111Z,6.73
2019-04-07T08:13:48.839Z,7.50
2019-04-07T08:15:25.431Z,6.83
2019-04-07T08:16:55.685Z,6.50
2019-04-07T08:18:28.554Z,7.17
2019-04-07T08:20:01.108Z,6.77
2019-04-07T08:21:33.750Z,7.13
2019-04-07T08:23:06.859Z,6.43
2019-04-07T08:24:39.422Z,6.90
2019-04-07T08:26:12.517Z,6.03
2019-04-07T08:27:45.696Z,6.40
2019-04-07T08:29:18.038Z,5.90
2019-04-07T08:30:51.275Z,6.50
2019-04-07T08:32:25.944Z,6.17
2019-04-07T08:33:59.692Z,6.40
2019-04-07T08:35:35.761Z,6.43
2019-04-07T08:37:06.073Z,7.00
2019-04-07T08:38:38.417Z,6.70
2019-04-07T08:40:10.916Z,6.17
2019-04-07T08:41:43.559Z,6.47
2019-04-07T08:43:19.621Z,6.00
2019-04-07T08:44:50.831Z,6.17
2019-04-07T08:46:23.404Z,8.20
2019-04-07T08:47:58.109Z,7.23
2019-04-07T08:49:32.742Z,8.60
2019-04-07T08:51:04.856Z,7.00
2019-04-07T08:52:40.747Z,6.20
2019-04-07T08:54:13.827Z,6.63
2019-04-07T08:55:47.744Z,6.47
2019-04-07T08:57:19.699Z,6.70
2019-04-07T08:58:52.201Z,6.70
2019-04-07T09:00:24.921Z,6.90
2019-04-07T09:01:58.044Z,6.80
2019-04-07T09:03:30.532Z,7.50
2019-04-07T09:05:02.941Z,8.70
2019-04-07T09:06:35.355Z,9.33
2019-04-07T09:08:07.788Z,8.20
2019-04-07T09:09:45.657Z,8.00
2019-04-07T09:11:14.635Z,8.37
2019-04-07T09:12:47.214Z,7.83
2019-04-07T09:14:20.253Z,8.33
2019-04-07T09:15:53.372Z,8.10
2019-04-07T09:17:32.202Z,8.50
2019-04-07T09:19:03.830Z,7.97
2019-04-07T09:20:34.659Z,8.77
2019-04-07T09:22:07.451Z,8.87
2019-04-07T09:23:40.462Z,8.90
2019-04-07T09:25:13.094Z,9.00
2019-04-07T09:26:45.697Z,8.10
2019-04-07T09:28:22.134Z,8.67
2019-04-07T09:29:52.340Z,8.73
2019-04-07T09:31:24.874Z,11.90
2019-04-07T09:32:57.840Z,9.77
2019-04-07T09:34:30.592Z,9.57
2019-04-07T09:36:03.560Z,10.10
2019-04-07T09:37:36.700Z,10.67
2019-04-07T09:39:09.501Z,10.50
2019-04-07T09:40:48.409Z,10.03
2019-04-07T09:42:25.679Z,11.00
2019-04-07T09:44:06.037Z,10.07
2019-04-07T09:45:46.613Z,11.07
2019-04-07T09:47:39.126Z,11.33
2019-04-07T09:49:11.890Z,11.27
2019-04-07T09:50:48.519Z,11.10
2019-04-07T09:52:28.275Z,11.97
2019-04-07T09:54:17.438Z,12.40
2019-04-07T09:55:42.287Z,13.90
2019-04-07T09:57:15.676Z,14.23
2019-04-07T09:58:48.417Z,13.63
2019-04-07T10:00:23.021Z,14.13
2019-04-07T10:01:57.079Z,14.00
2019-04-07T10:03:29.090Z,13.80
2019-04-07T10:05:01.686Z,13.93
2019-04-07T10:06:34.099Z,13.10
2019-04-07T10:08:07.204Z,13.20
2019-04-07T10:09:40.012Z,14.43
2019-04-07T10:11:14.039Z,13.93
2019-04-07T10:12:47.259Z,15.23
2019-04-07T10:14:19.706Z,15.43
2019-04-07T10:15:53.190Z,15.90
2019-04-07T10:17:26.191Z,16.57
2019-04-07T10:18:58.785Z,16.20
2019-04-07T10:20:31.514Z,18.13
2019-04-07T10:22:04.004Z,18.43
2019-04-07T10:23:36.464Z,18.17
2019-04-07T10:25:09.305Z,17.80
2019-04-07T10:26:41.893Z,19.33
2019-04-07T10:28:14.518Z,18.95
2019-04-07T10:29:47.058Z,19.02
2019-04-07T10:31:20.835Z,20.57
2019-04-07T10:32:53.499Z,20.43
2019-04-07T10:34:26.013Z,21.27
2019-04-07T10:35:58.443Z,20.08
2019-04-07T10:37:31.469Z,21.15
2019-04-07T10:39:04.637Z,19.13
2019-04-07T10:40:37.846Z,20.27
2019-04-07T10:42:11.300Z,19.70
2019-04-07T10:43:45.130Z,19.67
2019-04-07T10:45:17.791Z,18.65
2019-04-07T10:46:50.439Z,19.93
2019-04-07T10:48:24.469Z,18.33
2019-04-07T10:50:02.421Z,18.93
2019-04-07T10:51:31.891Z,19.12
2019-04-07T10:53:04.894Z,20.72
2019-04-07T10:54:38.101Z,20.12
2019-04-07T10:56:10.642Z,20.20
2019-04-07T10:57:43.626Z,21.20
2019-04-07T10:59:16.173Z,20.82
2019-04-07T11:00:50.829Z,21.57
2019-04-07T11:02:22.729Z,20.85
2019-04-07T11:03:56.391Z,21.82
2019-04-07T11:05:30.409Z,22.13
2019-04-07T11:07:03.055Z,21.37
2019-04-07T11:08:35.656Z,22.42
2019-04-07T11:10:08.151Z,20.72
2019-04-07T11:11:41.195Z,20.68
2019-04-07T11:13:14.603Z,20.43
2019-04-07T11:14:47.703Z,19.98
2019-04-07T11:16:20.523Z,20.60
2019-04-07T11:17:53.158Z,19.48
2019-04-07T11:19:28.103Z,19.85
2019-04-07T11:20:59.884Z,18.42
2019-04-07T11:22:33.776Z,18.32
2019-04-07T11:24:06.947Z,18.37
2019-04-07T11:25:41.366Z,19.80
2019-04-07T11:27:14.976Z,19.70
2019-04-07T11:28:48.046Z,20.50
2019-04-07T11:30:21.306Z,21.05
2019-04-07T11:31:54.886Z,20.57
2019-04-07T11:33:27.833Z,23.40
2019-04-07T11:35:00.564Z,21.48
2019-04-07T11:36:32.980Z,22.20
2019-04-07T11:38:05.825Z,21.57
2019-04-07T11:39:38.953Z,20.77
2019-04-07T11:41:11.483Z,22.45
2019-04-07T11:42:44.836Z,21.93
2019-04-07T11:44:19.946Z,22.67
2019-04-07T11:45:58.418Z,23.27
2019-04-07T11:47:25.723Z,24.32
2019-04-07T11:48:59.041Z,22.40
2019-04-07T11:50:32.612Z,22.82
2019-04-07T11:52:06.012Z,22.58
2019-04-07T11:53:39.606Z,22.82
2019-04-07T11:55:12.145Z,21.55
2019-04-07T11:56:44.631Z,20.90
2019-04-07T11:58:26.004Z,21.43
2019-04-07T11:59:51.308Z,19.65
2019-04-07T12:01:27.106Z,20.23
2019-04-07T12:02:59.646Z,21.93
2019-04-07T12:04:32.711Z,19.50
2019-04-07T12:06:05.267Z,20.37
2019-04-07T12:07:37.768Z,20.57
2019-04-07T12:09:10.860Z,20.55
2019-04-07T12:10:54.932Z,21.57
2019-04-07T12:12:18.217Z,23.73
2019-04-07T12:13:50.999Z,22.60
2019-04-07T12:15:26.722Z,22.27
2019-04-07T12:16:59.352Z,22.35
2019-04-07T12:18:32.146Z,23.05
2019-04-07T12:20:08.094Z,22.37
2019-04-07T12:21:40.848Z,19.67
2019-04-07T12:23:15.921Z,20.68
2019-04-07T12:24:48.039Z,20.75
2019-04-07T12:26:23.727Z,20.43
2019-04-07T12:27:56.731Z,21.27
2019-04-07T12:29:29.254Z,22.67
2019-04-07T12:31:02.127Z,22.50
2019-04-07T12:32:34.633Z,22.82
2019-04-07T12:34:14.398Z,21.10
2019-04-07T12:35:50.985Z,20.90
2019-04-07T12:37:20.696Z,22.15
2019-04-07T12:38:54.026Z,22.00
2019-04-07T12:40:26.754Z,21.70
2019-04-07T12:41:59.414Z,20.90
2019-04-07T12:43:32.799Z,21.93
2019-04-07T12:45:05.332Z,20.82
2019-04-07T12:46:37.726Z,20.60
2019-04-07T12:48:11.277Z,20.92
2019-04-07T12:49:45.715Z,21.05
2019-04-07T12:51:19.863Z,21.77
2019-04-07T12:52:52.909Z,20.45
2019-04-07T12:54:25.518Z,20.92
2019-04-07T12:56:00.473Z,18.92
2019-04-07T12:57:35.342Z,20.05
2019-04-07T12:59:06.836Z,19.82
2019-04-07T13:00:53.031Z,19.92
2019-04-07T13:02:15.499Z,19.12
2019-04-07T13:03:48.970Z,19.80
2019-04-07T13:05:24.124Z,20.82
2019-04-07T13:07:01.300Z,20.70
2019-04-07T13:08:34.928Z,18.87
2019-04-07T13:10:12.023Z,19.80
2019-04-07T13:11:49.724Z,19.55
2019-04-07T13:13:21.301Z,18.52
2019-04-07T13:14:54.657Z,19.25
2019-04-07T13:16:27.851Z,18.70
2019-04-07T13:18:04.247Z,16.93
2019-04-07T13:19:36.071Z,16.90
2019-04-07T13:21:09.007Z,16.25
2019-04-07T13:22:42.142Z,14.68
2019-04-07T13:24:28.386Z,15.50
2019-04-07T13:25:53.171Z,15.68
2019-04-07T13:27:23.270Z,16.62
2019-04-07T13:28:56.360Z,15.13
2019-04-07T13:30:28.865Z,15.23
2019-04-07T13:32:01.410Z,16.17
2019-04-07T13:33:34.836Z,15.78
2019-04-07T13:35:07.438Z,15.90
2019-04-07T13:36:39.888Z,15.08
2019-04-07T13:38:13.097Z,15.88
2019-04-07T13:39:46.416Z,15.45
2019-04-07T13:41:20.321Z,13.48
2019-04-07T13:42:56.649Z,13.18
2019-04-07T13:44:27.200Z,13.35
2019-04-07T13:45:59.673Z,12.18
2019-04-07T13:47:32.950Z,13.10
2019-04-07T13:49:05.725Z,11.93
2019-04-07T13:50:38.317Z,13.05
2019-04-07T13:52:10.754Z,12.33
2019-04-07T13:53:43.247Z,12.25
2019-04-07T13:55:16.482Z,11.75
2019-04-07T13:56:52.260Z,11.78
2019-04-07T13:58:24.111Z,11.65
2019-04-07T13:59:57.770Z,12.47
2019-04-07T14:01:32.469Z,12.37
2019-04-07T14:03:04.873Z,12.73
2019-04-07T14:04:37.551Z,12.40
2019-04-07T14:06:14.471Z,11.50
2019-04-07T14:07:44.980Z,12.75
2019-04-07T14:09:20.163Z,12.68
2019-04-07T14:10:52.859Z,12.37
2019-04-07T14:12:25.952Z,12.65
2019-04-07T14:13:59.114Z,12.13
2019-04-07T14:15:40.919Z,13.18
2019-04-07T14:17:14.071Z,11.48
2019-04-07T14:18:50.166Z,11.80
2019-04-07T14:20:21.479Z,11.83
2019-04-07T14:21:54.536Z,11.22
2019-04-07T14:23:27.581Z,10.35
2019-04-07T14:25:00.117Z,9.93
2019-04-07T14:26:33.443Z,9.93
2019-04-07T14:28:06.068Z,9.63
2019-04-07T14:29:38.427Z,9.78
2019-04-07T14:31:10.899Z,9.38
2019-04-07T14:32:45.328Z,9.33
2019-04-07T14:34:18.171Z,9.40
2019-04-07T14:35:50.774Z,10.25
2019-04-07T14:37:23.223Z,9.63
2019-04-07T14:38:56.008Z,10.38
2019-04-07T14:40:29.131Z,9.08
2019-04-07T14:42:06.157Z,9.18
2019-04-07T14:43:36.454Z,8.78
2019-04-07T14:45:09.581Z,8.98
2019-04-07T14:46:42.626Z,8.85
2019-04-07T14:48:15.098Z,8.83
2019-04-07T14:49:51.580Z,9.60
2019-04-07T14:51:23.069Z,9.10
2019-04-07T14:52:58.045Z,10.15
2019-04-07T14:54:34.673Z,9.50
2019-04-07T14:58:01.249Z,9.30
2019-04-07T14:59:34.016Z,10.43
2019-04-07T15:01:08.263Z,9.10
2019-04-07T15:02:46.625Z,9.53
2019-04-07T15:04:17.160Z,9.38
2019-04-07T15:05:50.641Z,10.15
2019-04-07T15:07:24.787Z,10.50
2019-04-07T15:08:57.160Z,11.12
2019-04-07T15:10:29.718Z,11.05
2019-04-07T15:12:17.101Z,11.25
2019-04-07T15:13:41.831Z,12.28
2019-04-07T15:15:15.969Z,12.43
2019-04-07T15:16:49.156Z,12.53
2019-04-07T15:18:24.105Z,12.05
2019-04-07T15:19:58.546Z,12.40
2019-04-07T15:21:31.894Z,12.20
2019-04-07T15:23:07.542Z,13.88
2019-04-07T15:24:58.069Z,14.47
2019-04-07T15:26:30.956Z,13.05
2019-04-07T15:28:14.252Z,13.25
2019-04-07T15:29:50.284Z,13.40
2019-04-07T15:31:27.395Z,13.72
2019-04-07T15:33:01.620Z,14.00
2019-04-07T15:34:34.352Z,14.10
2019-04-07T15:36:10.793Z,13.38
2019-04-07T15:37:44.706Z,14.73
2019-04-07T15:39:17.170Z,13.20
2019-04-07T15:40:50.564Z,13.80
2019-04-07T15:42:37.772Z,13.65
2019-04-07T15:43:58.499Z,13.83
2019-04-07T15:47:29.734Z,14.58
2019-04-07T15:49:06.695Z,13.90
2019-04-07T15:52:47.051Z,12.80
2019-04-07T15:54:30.955Z,13.43
2019-04-07T15:56:08.374Z,12.78
2019-04-07T15:59:54.300Z,13.45
2019-04-07T16:01:23.785Z,12.73
2019-04-07T16:02:56.257Z,13.45
2019-04-07T16:04:29.603Z,13.40
2019-04-07T16:06:05.697Z,13.20
2019-04-07T16:07:41.900Z,12.70
2019-04-07T16:09:30.447Z,13.55
2019-04-07T16:10:48.700Z,13.10
2019-04-07T16:12:21.873Z,13.28
2019-04-07T16:13:55.170Z,13.18
2019-04-07T16:15:31.819Z,13.35
2019-04-07T16:17:06.362Z,12.45
2019-04-07T16:18:40.887Z,13.13
2019-04-07T16:20:20.624Z,13.00
2019-04-07T16:21:49.651Z,12.25
2019-04-07T16:23:24.417Z,12.58
2019-04-07T16:24:57.261Z,12.40
2019-04-07T16:26:32.478Z,13.25
2019-04-07T16:28:09.217Z,13.70
2019-04-07T16:29:42.971Z,12.95
2019-04-07T16:31:15.574Z,12.65
2019-04-07T16:32:48.192Z,12.20
2019-04-07T16:34:22.811Z,12.93
2019-04-07T16:35:57.961Z,11.88
2019-04-07T16:37:31.064Z,12.28
2019-04-07T16:39:04.542Z,11.70
2019-04-07T16:40:41.350Z,12.03
2019-04-07T16:42:15.257Z,12.37
2019-04-07T16:43:47.886Z,11.90
2019-04-07T16:45:21.247Z,12.33
2019-04-07T16:46:56.439Z,12.15
2019-04-07T16:48:28.324Z,11.83
2019-04-07T16:50:01.073Z,12.43
2019-04-07T16:51:34.248Z,11.80
2019-04-07T16:53:08.257Z,12.78
2019-04-07T16:54:43.460Z,12.05
2019-04-07T16:56:19.292Z,12.28
2019-04-07T16:57:50.365Z,11.80
2019-04-07T16:59:23.034Z,12.37
2019-04-07T17:00:55.986Z,12.18
2019-04-07T17:02:29.500Z,12.35
2019-04-07T17:04:02.973Z,11.85
2019-04-07T17:05:36.443Z,11.78
2019-04-07T17:07:14.175Z,11.75
2019-04-07T17:08:43.408Z,12.28
2019-04-07T17:10:16.685Z,12.47
2019-04-07T17:11:49.384Z,11.80
2019-04-07T17:13:32.057Z,12.93
2019-04-07T17:14:57.779Z,11.83
2019-04-07T17:16:30.435Z,12.40
2019-04-07T17:18:02.867Z,12.15
2019-04-07T17:19:35.881Z,12.75
2019-04-07T17:21:09.481Z,12.35
2019-04-07T17:22:45.882Z,11.68
2019-04-07T17:24:17.357Z,12.20
2019-04-07T17:25:50.326Z,11.45
2019-04-07T17:27:22.998Z,12.98
2019-04-07T17:28:56.958Z,12.55
2019-04-07T17:30:30.140Z,11.93
2019-04-07T17:32:03.458Z,12.10
2019-04-07T17:33:37.171Z,12.07
2019-04-07T17:35:12.557Z,12.40
2019-04-07T17:36:48.169Z,12.13
2019-04-07T17:38:18.499Z,11.88
2019-04-07T17:39:51.438Z,12.37
2019-04-07T17:41:24.071Z,12.05
2019-04-07T17:42:56.718Z,12.00
2019-04-07T17:44:29.740Z,12.95
2019-04-07T17:46:02.606Z,12.28
2019-04-07T17:47:36.655Z,13.20
2019-04-07T17:49:09.960Z,13.08
2019-04-07T17:50:42.571Z,12.70
2019-04-07T17:52:18.601Z,12.30
2019-04-07T17:53:51.731Z,11.85
2019-04-07T17:55:26.889Z,12.37
2019-04-07T17:57:01.152Z,12.03
2019-04-07T17:58:32.386Z,12.33
2019-04-07T18:00:05.774Z,13.43
2019-04-07T18:01:38.951Z,12.33
2019-04-07T18:03:11.807Z,12.13
2019-04-07T18:04:50.078Z,12.75
2019-04-07T18:06:19.455Z,13.90
2019-04-07T18:07:52.059Z,12.33
2019-04-07T18:09:29.851Z,12.33
2019-04-07T18:11:07.585Z,12.65
2019-04-07T18:12:47.852Z,12.35
2019-04-07T18:14:12.616Z,12.18
2019-04-07T18:17:48.393Z,12.23
2019-04-07T18:19:20.783Z,12.63
2019-04-07T18:20:54.071Z,12.13
2019-04-07T18:22:27.422Z,12.00
2019-04-07T18:23:59.990Z,12.80
2019-04-07T18:25:34.347Z,11.88
2019-04-07T18:27:10.084Z,12.07
2019-04-07T18:28:43.334Z,12.30
2019-04-07T18:30:16.959Z,13.28
2019-04-07T18:31:49.387Z,12.70
2019-04-07T18:33:22.802Z,12.67
2019-04-07T18:34:58.394Z,12.47
2019-04-07T18:36:29.596Z,12.68
2019-04-07T18:38:02.238Z,12.80
2019-04-07T18:39:35.227Z,12.85
2019-04-07T18:41:10.621Z,12.37
2019-04-07T18:47:16.669Z,12.10
2019-04-07T18:48:09.327Z,13.23
2019-04-07T18:49:48.441Z,11.73
2019-04-07T18:51:21.780Z,13.27
2019-04-07T18:53:14.699Z,12.60
2019-04-07T18:54:47.644Z,12.43
2019-04-07T18:56:21.330Z,12.78
2019-04-07T18:57:54.450Z,13.63
2019-04-07T18:59:26.987Z,12.68
2019-04-07T19:01:04.442Z,13.32
2019-04-07T19:02:34.338Z,12.95
2019-04-07T19:04:06.896Z,13.00
2019-04-07T19:05:39.426Z,13.03
2019-04-07T19:07:15.150Z,14.33
2019-04-07T19:08:47.069Z,12.58
2019-04-07T19:10:24.193Z,13.03
2019-04-07T19:12:04.265Z,12.65
2019-04-07T19:13:28.678Z,13.77
2019-04-07T19:15:06.656Z,12.50
2019-04-07T19:16:36.181Z,13.17
2019-04-07T19:18:09.761Z,12.93
2019-04-07T19:19:42.511Z,14.37
2019-04-07T19:21:15.036Z,13.03
2019-04-07T19:22:50.683Z,13.53
2019-04-07T19:24:21.682Z,13.00
2019-04-07T19:25:54.171Z,13.48
2019-04-07T19:27:30.188Z,12.75
2019-04-07T19:29:01.590Z,13.03
2019-04-07T19:30:34.490Z,14.10
2019-04-07T19:32:07.797Z,12.65
2019-04-07T19:33:40.450Z,13.37
2019-04-07T19:35:13.186Z,12.68
2019-04-07T19:36:47.264Z,14.23
2019-04-07T19:38:22.427Z,12.63
2019-04-07T19:39:56.505Z,13.33
2019-04-07T19:41:29.345Z,13.25
2019-04-07T19:43:02.261Z,13.20
2019-04-07T19:44:39.343Z,13.50
2019-04-07T19:46:09.194Z,13.15
2019-04-07T19:47:41.764Z,13.23
2019-04-07T19:49:17.855Z,12.80
2019-04-07T19:50:50.544Z,12.53
2019-04-07T19:52:22.904Z,12.10
2019-04-07T19:53:55.864Z,12.50
2019-04-07T19:55:28.358Z,14.47
2019-04-07T19:57:00.980Z,13.50
2019-04-07T19:58:38.617Z,13.45
2019-04-07T20:00:29.448Z,14.33
2019-04-07T20:02:08.374Z,13.50
2019-04-07T20:03:41.138Z,13.55
2019-04-07T20:05:17.364Z,13.32
2019-04-07T20:06:49.454Z,13.73
2019-04-07T20:08:26.967Z,13.67
2019-04-07T20:09:59.707Z,12.80
2019-04-07T20:11:37.493Z,13.27
2019-04-07T20:13:11.674Z,14.10
2019-04-07T20:14:58.553Z,13.03
2019-04-07T20:16:21.913Z,13.33
2019-04-07T20:17:54.876Z,13.07
2019-04-07T20:19:34.905Z,14.43
2019-04-07T20:21:03.093Z,13.57
2019-04-07T20:22:42.131Z,13.03
2019-04-07T20:24:17.412Z,13.90
2019-04-07T20:25:50.736Z,13.63
2019-04-07T20:27:28.498Z,13.17
2019-04-07T20:29:05.140Z,12.97
2019-04-07T20:30:38.014Z,13.97
2019-04-07T20:32:13.115Z,13.00
2019-04-07T20:33:45.762Z,13.00
2019-04-07T20:35:18.709Z,12.70
2019-04-07T20:36:53.668Z,13.63
2019-04-07T20:38:27.316Z,13.00